sensor_id;sensor_type;location;lat;lon;timestamp;temperature;humidity
13203;DHT22;6666;51.626;7.530;2022-12-18T00:00:07;-7.60;99.90
13203;DHT22;6666;51.626;7.530;2022-12-18T00:02:44;-7.60;99.90
13203;DHT22;6666;51.626;7.530;2022-12-18T00:05:13;-7.60;99.90
13203;DHT22;6666;51.626;7.530;2022-12-18T00:07:41;-7.50;99.90
13203;DHT22;6666;51.626;7.530;2022-12-18T00:10:09;-7.60;99.90
13203;DHT22;6666;51.626;7.530;2022-12-18T00:12:43;-7.60;99.90
13203;DHT22;6666;51.626;7.530;2022-12-18T00:15:12;-7.60;99.90
13203;DHT22;6666;51.626;7.530;2022-12-18T00:17:40;-7.70;99.90
13203;DHT22;6666;51.626;7.530;2022-12-18T00:20:10;-7.70;99.90
13203;DHT22;6666;51.626;7.530;2022-12-18T00:22:39;-7.70;99.90
13203;DHT22;6666;51.626;7.530;2022-12-18T00:25:07;-7.70;99.90
13203;DHT22;6666;51.626;7.530;2022-12-18T00:27:36;-7.70;99.90
13203;DHT22;6666;51.626;7.530;2022-12-18T00:30:05;-7.70;99.90
13203;DHT22;6666;51.626;7.530;2022-12-18T00:32:33;-7.70;99.90
13203;DHT22;6666;51.626;7.530;2022-12-18T00:35:02;-7.70;99.90
13203;DHT22;6666;51.626;7.530;2022-12-18T00:37:33;-7.80;99.90
13203;DHT22;6666;51.626;7.530;2022-12-18T00:40:02;-7.70;99.90
13203;DHT22;6666;51.626;7.530;2022-12-18T00:42:31;-7.80;99.90
13203;DHT22;6666;51.626;7.530;2022-12-18T00:45:17;-7.80;99.90
13203;DHT22;6666;51.626;7.530;2022-12-18T00:47:45;-7.70;99.90
13203;DHT22;6666;51.626;7.530;2022-12-18T00:50:14;-7.70;99.90
13203;DHT22;6666;51.626;7.530;2022-12-18T00:52:44;-7.80;99.90
13203;DHT22;6666;51.626;7.530;2022-12-18T00:55:12;-7.80;99.90
13203;DHT22;6666;51.626;7.530;2022-12-18T00:57:41;-7.70;99.90
13203;DHT22;6666;51.626;7.530;2022-12-18T01:00:13;-7.70;99.90
13203;DHT22;6666;51.626;7.530;2022-12-18T01:02:42;-7.70;99.90
13203;DHT22;6666;51.626;7.530;2022-12-18T01:05:12;-7.70;99.90
13203;DHT22;6666;51.626;7.530;2022-12-18T01:07:41;-7.80;99.90
13203;DHT22;6666;51.626;7.530;2022-12-18T01:10:12;-7.80;99.90
13203;DHT22;6666;51.626;7.530;2022-12-18T01:12:41;-7.80;99.90
13203;DHT22;6666;51.626;7.530;2022-12-18T01:15:10;-7.90;99.90
13203;DHT22;6666;51.626;7.530;2022-12-18T01:17:40;-7.90;99.90
13203;DHT22;6666;51.626;7.530;2022-12-18T01:20:09;-7.80;99.90
13203;DHT22;6666;51.626;7.530;2022-12-18T01:22:38;-7.90;99.90
13203;DHT22;6666;51.626;7.530;2022-12-18T01:25:07;-7.80;99.90
13203;DHT22;6666;51.626;7.530;2022-12-18T01:27:37;-7.80;99.90
13203;DHT22;6666;51.626;7.530;2022-12-18T01:30:06;-7.70;99.90
13203;DHT22;6666;51.626;7.530;2022-12-18T01:32:35;-7.80;99.90
13203;DHT22;6666;51.626;7.530;2022-12-18T01:35:04;-7.80;99.90
13203;DHT22;6666;51.626;7.530;2022-12-18T01:37:32;-7.80;99.90
13203;DHT22;6666;51.626;7.530;2022-12-18T01:40:00;-7.80;99.90
13203;DHT22;6666;51.626;7.530;2022-12-18T01:42:29;-7.80;99.90
13203;DHT22;6666;51.626;7.530;2022-12-18T01:45:08;-7.80;99.90
13203;DHT22;6666;51.626;7.530;2022-12-18T01:47:51;-7.90;99.90
13203;DHT22;6666;51.626;7.530;2022-12-18T01:50:23;-7.90;99.90
13203;DHT22;6666;51.626;7.530;2022-12-18T01:52:55;-7.80;99.90
13203;DHT22;6666;51.626;7.530;2022-12-18T01:55:28;-7.90;99.90
13203;DHT22;6666;51.626;7.530;2022-12-18T01:57:58;-7.90;99.90
13203;DHT22;6666;51.626;7.530;2022-12-18T02:00:29;-7.90;99.90
13203;DHT22;6666;51.626;7.530;2022-12-18T02:02:57;-8.00;99.90
13203;DHT22;6666;51.626;7.530;2022-12-18T02:05:31;-7.90;99.90
13203;DHT22;6666;51.626;7.530;2022-12-18T02:08:08;-7.90;99.90
13203;DHT22;6666;51.626;7.530;2022-12-18T02:10:46;-7.70;99.90
13203;DHT22;6666;51.626;7.530;2022-12-18T02:13:22;-7.90;99.90
13203;DHT22;6666;51.626;7.530;2022-12-18T02:16:01;-7.90;99.90
13203;DHT22;6666;51.626;7.530;2022-12-18T02:18:35;-8.00;99.90
13203;DHT22;6666;51.626;7.530;2022-12-18T02:21:11;-8.00;99.90
13203;DHT22;6666;51.626;7.530;2022-12-18T02:23:51;-8.00;99.90
13203;DHT22;6666;51.626;7.530;2022-12-18T02:26:30;-8.00;99.90
13203;DHT22;6666;51.626;7.530;2022-12-18T02:29:07;-8.00;99.90
13203;DHT22;6666;51.626;7.530;2022-12-18T02:31:42;-7.90;99.90
13203;DHT22;6666;51.626;7.530;2022-12-18T02:34:12;-7.90;99.90
13203;DHT22;6666;51.626;7.530;2022-12-18T02:36:43;-8.00;99.90
13203;DHT22;6666;51.626;7.530;2022-12-18T02:39:14;-8.00;99.90
13203;DHT22;6666;51.626;7.530;2022-12-18T02:41:58;-8.00;99.90
13203;DHT22;6666;51.626;7.530;2022-12-18T02:44:29;-8.10;99.90
13203;DHT22;6666;51.626;7.530;2022-12-18T02:46:57;-8.10;99.90
13203;DHT22;6666;51.626;7.530;2022-12-18T02:49:32;-8.00;99.90
13203;DHT22;6666;51.626;7.530;2022-12-18T02:52:10;-7.90;99.90
13203;DHT22;6666;51.626;7.530;2022-12-18T02:54:50;-7.90;99.90
13203;DHT22;6666;51.626;7.530;2022-12-18T02:57:32;-8.00;99.90
13203;DHT22;6666;51.626;7.530;2022-12-18T03:00:05;-8.00;99.90
13203;DHT22;6666;51.626;7.530;2022-12-18T03:02:39;-8.00;99.90
13203;DHT22;6666;51.626;7.530;2022-12-18T03:05:14;-7.90;99.90
13203;DHT22;6666;51.626;7.530;2022-12-18T03:07:49;-7.90;99.90
13203;DHT22;6666;51.626;7.530;2022-12-18T03:10:23;-7.90;99.90
13203;DHT22;6666;51.626;7.530;2022-12-18T03:12:58;-7.80;99.90
13203;DHT22;6666;51.626;7.530;2022-12-18T03:15:31;-7.70;99.90
13203;DHT22;6666;51.626;7.530;2022-12-18T03:18:11;-7.80;99.90
13203;DHT22;6666;51.626;7.530;2022-12-18T03:20:42;-7.90;99.90
13203;DHT22;6666;51.626;7.530;2022-12-18T03:23:17;-7.90;99.90
13203;DHT22;6666;51.626;7.530;2022-12-18T03:25:54;-7.80;99.90
13203;DHT22;6666;51.626;7.530;2022-12-18T03:28:33;-7.90;99.90
13203;DHT22;6666;51.626;7.530;2022-12-18T03:31:05;-7.90;99.90
13203;DHT22;6666;51.626;7.530;2022-12-18T03:33:39;-7.90;99.90
13203;DHT22;6666;51.626;7.530;2022-12-18T03:36:09;-7.90;99.90
13203;DHT22;6666;51.626;7.530;2022-12-18T03:38:38;-7.90;99.90
13203;DHT22;6666;51.626;7.530;2022-12-18T03:41:16;-7.90;99.90
13203;DHT22;6666;51.626;7.530;2022-12-18T03:44:16;-7.90;99.90
13203;DHT22;6666;51.626;7.530;2022-12-18T03:46:55;-7.90;99.90
13203;DHT22;6666;51.626;7.530;2022-12-18T03:49:29;-7.90;99.90
13203;DHT22;6666;51.626;7.530;2022-12-18T03:52:05;-7.90;99.90
13203;DHT22;6666;51.626;7.530;2022-12-18T03:54:39;-7.90;99.90
13203;DHT22;6666;51.626;7.530;2022-12-18T03:57:16;-8.00;99.90
13203;DHT22;6666;51.626;7.530;2022-12-18T03:59:51;-7.90;99.90
13203;DHT22;6666;51.626;7.530;2022-12-18T04:02:25;-7.80;99.90
13203;DHT22;6666;51.626;7.530;2022-12-18T04:05:00;-7.70;99.90
13203;DHT22;6666;51.626;7.530;2022-12-18T04:07:30;-7.80;99.90
13203;DHT22;6666;51.626;7.530;2022-12-18T04:10:01;-7.80;99.90
13203;DHT22;6666;51.626;7.530;2022-12-18T04:12:31;-7.90;99.90
13203;DHT22;6666;51.626;7.530;2022-12-18T04:15:01;-7.90;99.90
13203;DHT22;6666;51.626;7.530;2022-12-18T04:17:30;-7.80;99.90
13203;DHT22;6666;51.626;7.530;2022-12-18T04:19:58;-7.70;99.90
13203;DHT22;6666;51.626;7.530;2022-12-18T04:22:27;-7.70;99.90
13203;DHT22;6666;51.626;7.530;2022-12-18T04:24:58;-7.60;99.90
13203;DHT22;6666;51.626;7.530;2022-12-18T04:27:35;-7.80;99.90
13203;DHT22;6666;51.626;7.530;2022-12-18T04:30:07;-7.70;99.90
13203;DHT22;6666;51.626;7.530;2022-12-18T04:32:36;-7.70;99.90
13203;DHT22;6666;51.626;7.530;2022-12-18T04:35:04;-7.70;99.90
13203;DHT22;6666;51.626;7.530;2022-12-18T04:37:40;-7.70;99.90
13203;DHT22;6666;51.626;7.530;2022-12-18T04:40:10;-7.70;99.90
13203;DHT22;6666;51.626;7.530;2022-12-18T04:42:42;-7.60;99.90
13203;DHT22;6666;51.626;7.530;2022-12-18T04:45:12;-7.60;99.90
13203;DHT22;6666;51.626;7.530;2022-12-18T04:47:40;-7.60;99.90
13203;DHT22;6666;51.626;7.530;2022-12-18T04:50:08;-7.70;99.90
13203;DHT22;6666;51.626;7.530;2022-12-18T04:52:37;-7.80;99.90
13203;DHT22;6666;51.626;7.530;2022-12-18T04:55:05;-7.80;99.90
13203;DHT22;6666;51.626;7.530;2022-12-18T04:57:34;-7.80;99.90
13203;DHT22;6666;51.626;7.530;2022-12-18T05:00:03;-7.70;99.90
13203;DHT22;6666;51.626;7.530;2022-12-18T05:02:34;-7.70;99.90
13203;DHT22;6666;51.626;7.530;2022-12-18T05:05:03;-7.70;99.90
13203;DHT22;6666;51.626;7.530;2022-12-18T05:07:31;-7.70;99.90
13203;DHT22;6666;51.626;7.530;2022-12-18T05:09:59;-7.80;99.90
13203;DHT22;6666;51.626;7.530;2022-12-18T05:12:28;-7.80;99.90
13203;DHT22;6666;51.626;7.530;2022-12-18T05:14:56;-7.80;99.90
13203;DHT22;6666;51.626;7.530;2022-12-18T05:17:24;-7.80;99.90
13203;DHT22;6666;51.626;7.530;2022-12-18T05:19:54;-7.80;99.90
13203;DHT22;6666;51.626;7.530;2022-12-18T05:22:22;-7.80;99.90
13203;DHT22;6666;51.626;7.530;2022-12-18T05:24:51;-7.70;99.90
13203;DHT22;6666;51.626;7.530;2022-12-18T05:27:19;-7.80;99.90
13203;DHT22;6666;51.626;7.530;2022-12-18T05:29:48;-7.70;99.90
13203;DHT22;6666;51.626;7.530;2022-12-18T05:32:16;-7.80;99.90
13203;DHT22;6666;51.626;7.530;2022-12-18T05:34:44;-7.70;99.90
13203;DHT22;6666;51.626;7.530;2022-12-18T05:37:14;-7.70;99.90
13203;DHT22;6666;51.626;7.530;2022-12-18T05:39:42;-7.80;99.90
13203;DHT22;6666;51.626;7.530;2022-12-18T05:42:11;-7.70;99.90
13203;DHT22;6666;51.626;7.530;2022-12-18T05:44:39;-7.70;99.90
13203;DHT22;6666;51.626;7.530;2022-12-18T05:47:07;-7.70;99.90
13203;DHT22;6666;51.626;7.530;2022-12-18T05:49:35;-7.80;99.90
13203;DHT22;6666;51.626;7.530;2022-12-18T05:52:04;-7.70;99.90
13203;DHT22;6666;51.626;7.530;2022-12-18T05:54:33;-7.70;99.90
13203;DHT22;6666;51.626;7.530;2022-12-18T05:57:02;-7.70;99.90
13203;DHT22;6666;51.626;7.530;2022-12-18T05:59:30;-7.70;99.90
13203;DHT22;6666;51.626;7.530;2022-12-18T06:01:58;-7.70;99.90
13203;DHT22;6666;51.626;7.530;2022-12-18T06:04:29;-7.60;99.90
13203;DHT22;6666;51.626;7.530;2022-12-18T06:06:58;-7.60;99.90
13203;DHT22;6666;51.626;7.530;2022-12-18T06:09:29;-7.50;99.90
13203;DHT22;6666;51.626;7.530;2022-12-18T06:11:59;-7.40;99.90
13203;DHT22;6666;51.626;7.530;2022-12-18T06:14:27;-7.40;99.90
13203;DHT22;6666;51.626;7.530;2022-12-18T06:16:55;-7.30;99.90
13203;DHT22;6666;51.626;7.530;2022-12-18T06:19:24;-7.40;99.90
13203;DHT22;6666;51.626;7.530;2022-12-18T06:21:52;-7.30;99.90
13203;DHT22;6666;51.626;7.530;2022-12-18T06:24:20;-7.30;99.90
13203;DHT22;6666;51.626;7.530;2022-12-18T06:26:48;-7.20;99.90
13203;DHT22;6666;51.626;7.530;2022-12-18T06:29:18;-7.20;99.90
13203;DHT22;6666;51.626;7.530;2022-12-18T06:31:46;-7.10;99.90
13203;DHT22;6666;51.626;7.530;2022-12-18T06:34:15;-7.10;99.90
13203;DHT22;6666;51.626;7.530;2022-12-18T06:36:43;-7.10;99.90
13203;DHT22;6666;51.626;7.530;2022-12-18T06:39:11;-7.10;99.90
13203;DHT22;6666;51.626;7.530;2022-12-18T06:41:39;-7.10;99.90
13203;DHT22;6666;51.626;7.530;2022-12-18T06:44:07;-7.10;99.90
13203;DHT22;6666;51.626;7.530;2022-12-18T06:46:38;-7.00;99.90
13203;DHT22;6666;51.626;7.530;2022-12-18T06:49:07;-7.00;99.90
13203;DHT22;6666;51.626;7.530;2022-12-18T06:51:36;-7.00;99.90
13203;DHT22;6666;51.626;7.530;2022-12-18T06:54:05;-7.00;99.90
13203;DHT22;6666;51.626;7.530;2022-12-18T06:56:33;-7.10;99.90
13203;DHT22;6666;51.626;7.530;2022-12-18T06:59:02;-7.10;99.90
13203;DHT22;6666;51.626;7.530;2022-12-18T07:01:30;-7.00;99.90
13203;DHT22;6666;51.626;7.530;2022-12-18T07:04:00;-7.00;99.90
13203;DHT22;6666;51.626;7.530;2022-12-18T07:06:28;-7.00;99.90
13203;DHT22;6666;51.626;7.530;2022-12-18T07:08:56;-7.00;99.90
13203;DHT22;6666;51.626;7.530;2022-12-18T07:11:24;-7.00;99.90
13203;DHT22;6666;51.626;7.530;2022-12-18T07:13:53;-7.00;99.90
13203;DHT22;6666;51.626;7.530;2022-12-18T07:16:24;-6.90;99.90
13203;DHT22;6666;51.626;7.530;2022-12-18T07:18:52;-7.00;99.90
13203;DHT22;6666;51.626;7.530;2022-12-18T07:21:23;-6.90;99.90
13203;DHT22;6666;51.626;7.530;2022-12-18T07:23:52;-7.00;99.90
13203;DHT22;6666;51.626;7.530;2022-12-18T07:26:21;-6.90;99.90
13203;DHT22;6666;51.626;7.530;2022-12-18T07:28:50;-7.00;99.90
13203;DHT22;6666;51.626;7.530;2022-12-18T07:31:20;-6.90;99.90
13203;DHT22;6666;51.626;7.530;2022-12-18T07:33:49;-6.90;99.90
13203;DHT22;6666;51.626;7.530;2022-12-18T07:36:17;-6.90;99.90
13203;DHT22;6666;51.626;7.530;2022-12-18T07:38:50;-6.80;99.90
13203;DHT22;6666;51.626;7.530;2022-12-18T07:41:19;-6.80;99.90
13203;DHT22;6666;51.626;7.530;2022-12-18T07:43:47;-6.80;99.90
13203;DHT22;6666;51.626;7.530;2022-12-18T07:46:16;-6.80;99.90
13203;DHT22;6666;51.626;7.530;2022-12-18T07:48:45;-6.70;99.90
13203;DHT22;6666;51.626;7.530;2022-12-18T07:51:16;-6.70;99.90
13203;DHT22;6666;51.626;7.530;2022-12-18T07:53:45;-6.70;99.90
13203;DHT22;6666;51.626;7.530;2022-12-18T07:56:19;-6.70;99.90
13203;DHT22;6666;51.626;7.530;2022-12-18T07:58:54;-6.60;99.90
13203;DHT22;6666;51.626;7.530;2022-12-18T08:01:23;-6.60;99.90
13203;DHT22;6666;51.626;7.530;2022-12-18T08:03:52;-6.60;99.90
13203;DHT22;6666;51.626;7.530;2022-12-18T08:06:20;-6.50;99.90
13203;DHT22;6666;51.626;7.530;2022-12-18T08:08:51;-6.50;99.90
13203;DHT22;6666;51.626;7.530;2022-12-18T08:11:23;-6.40;99.90
13203;DHT22;6666;51.626;7.530;2022-12-18T08:13:51;-6.40;99.90
13203;DHT22;6666;51.626;7.530;2022-12-18T08:16:20;-6.30;99.90
13203;DHT22;6666;51.626;7.530;2022-12-18T08:18:49;-6.20;99.90
13203;DHT22;6666;51.626;7.530;2022-12-18T08:21:22;-6.10;99.90
13203;DHT22;6666;51.626;7.530;2022-12-18T08:23:51;-6.10;99.90
13203;DHT22;6666;51.626;7.530;2022-12-18T08:26:22;-6.00;99.90
13203;DHT22;6666;51.626;7.530;2022-12-18T08:28:51;-5.90;99.90
13203;DHT22;6666;51.626;7.530;2022-12-18T08:31:19;-5.90;99.90
13203;DHT22;6666;51.626;7.530;2022-12-18T08:33:50;-5.90;99.90
13203;DHT22;6666;51.626;7.530;2022-12-18T08:36:20;-5.90;99.90
13203;DHT22;6666;51.626;7.530;2022-12-18T08:38:50;-5.80;99.90
13203;DHT22;6666;51.626;7.530;2022-12-18T08:41:18;-5.80;99.90
13203;DHT22;6666;51.626;7.530;2022-12-18T08:43:48;-5.70;99.90
13203;DHT22;6666;51.626;7.530;2022-12-18T08:46:35;-5.60;99.90
13203;DHT22;6666;51.626;7.530;2022-12-18T08:49:05;-5.60;99.90
13203;DHT22;6666;51.626;7.530;2022-12-18T08:51:34;-5.40;99.90
13203;DHT22;6666;51.626;7.530;2022-12-18T08:54:03;-5.40;99.90
13203;DHT22;6666;51.626;7.530;2022-12-18T08:56:33;-5.30;99.90
13203;DHT22;6666;51.626;7.530;2022-12-18T08:59:02;-5.20;99.90
13203;DHT22;6666;51.626;7.530;2022-12-18T09:01:31;-5.10;99.90
13203;DHT22;6666;51.626;7.530;2022-12-18T09:04:01;-5.00;99.90
13203;DHT22;6666;51.626;7.530;2022-12-18T09:06:31;-5.00;99.90
13203;DHT22;6666;51.626;7.530;2022-12-18T09:08:59;-5.00;99.90
13203;DHT22;6666;51.626;7.530;2022-12-18T09:11:28;-5.00;99.90
13203;DHT22;6666;51.626;7.530;2022-12-18T09:13:57;-5.00;99.90
13203;DHT22;6666;51.626;7.530;2022-12-18T09:16:28;-5.00;99.90
13203;DHT22;6666;51.626;7.530;2022-12-18T09:18:59;-5.00;99.90
13203;DHT22;6666;51.626;7.530;2022-12-18T09:21:29;-4.90;99.90
13203;DHT22;6666;51.626;7.530;2022-12-18T09:24:03;-4.80;99.90
13203;DHT22;6666;51.626;7.530;2022-12-18T09:26:35;-4.70;99.90
13203;DHT22;6666;51.626;7.530;2022-12-18T09:29:03;-4.70;99.90
13203;DHT22;6666;51.626;7.530;2022-12-18T09:31:33;-4.60;99.90
13203;DHT22;6666;51.626;7.530;2022-12-18T09:34:02;-4.60;99.90
13203;DHT22;6666;51.626;7.530;2022-12-18T09:36:30;-4.40;99.90
13203;DHT22;6666;51.626;7.530;2022-12-18T09:38:58;-4.40;99.90
13203;DHT22;6666;51.626;7.530;2022-12-18T09:41:43;-4.40;99.90
13203;DHT22;6666;51.626;7.530;2022-12-18T09:44:21;-4.40;99.90
13203;DHT22;6666;51.626;7.530;2022-12-18T09:46:59;-4.30;99.90
13203;DHT22;6666;51.626;7.530;2022-12-18T09:49:35;-4.30;99.90
13203;DHT22;6666;51.626;7.530;2022-12-18T09:52:09;-4.30;99.90
13203;DHT22;6666;51.626;7.530;2022-12-18T09:54:44;-4.20;99.90
13203;DHT22;6666;51.626;7.530;2022-12-18T09:57:15;-4.10;99.90
13203;DHT22;6666;51.626;7.530;2022-12-18T09:59:49;-4.00;99.90
13203;DHT22;6666;51.626;7.530;2022-12-18T10:02:23;-4.00;99.90
13203;DHT22;6666;51.626;7.530;2022-12-18T10:05:06;-3.90;99.90
13203;DHT22;6666;51.626;7.530;2022-12-18T10:07:47;-3.80;99.90
13203;DHT22;6666;51.626;7.530;2022-12-18T10:10:26;-3.70;99.90
13203;DHT22;6666;51.626;7.530;2022-12-18T10:13:02;-3.60;99.90
13203;DHT22;6666;51.626;7.530;2022-12-18T10:15:36;-3.50;99.90
13203;DHT22;6666;51.626;7.530;2022-12-18T10:18:19;-3.50;99.90
13203;DHT22;6666;51.626;7.530;2022-12-18T10:20:52;-3.30;99.90
13203;DHT22;6666;51.626;7.530;2022-12-18T10:23:28;-3.30;99.90
13203;DHT22;6666;51.626;7.530;2022-12-18T10:26:02;-3.30;99.90
13203;DHT22;6666;51.626;7.530;2022-12-18T10:28:31;-3.10;99.90
13203;DHT22;6666;51.626;7.530;2022-12-18T10:31:05;-3.00;99.90
13203;DHT22;6666;51.626;7.530;2022-12-18T10:33:35;-2.90;99.90
13203;DHT22;6666;51.626;7.530;2022-12-18T10:36:04;-2.90;99.90
13203;DHT22;6666;51.626;7.530;2022-12-18T10:38:33;-2.80;99.90
13203;DHT22;6666;51.626;7.530;2022-12-18T10:41:03;-2.70;99.90
13203;DHT22;6666;51.626;7.530;2022-12-18T10:43:34;-2.60;99.90
13203;DHT22;6666;51.626;7.530;2022-12-18T10:46:12;-2.60;99.90
13203;DHT22;6666;51.626;7.530;2022-12-18T10:48:52;-2.60;99.90
13203;DHT22;6666;51.626;7.530;2022-12-18T10:51:24;-2.60;99.90
13203;DHT22;6666;51.626;7.530;2022-12-18T10:53:59;-2.60;99.90
13203;DHT22;6666;51.626;7.530;2022-12-18T10:56:30;-2.50;99.90
13203;DHT22;6666;51.626;7.530;2022-12-18T10:59:01;-2.50;99.90
13203;DHT22;6666;51.626;7.530;2022-12-18T11:01:49;-2.50;99.90
13203;DHT22;6666;51.626;7.530;2022-12-18T11:04:22;-2.40;99.90
13203;DHT22;6666;51.626;7.530;2022-12-18T11:06:54;-2.40;99.90
13203;DHT22;6666;51.626;7.530;2022-12-18T11:09:24;-2.30;99.90
13203;DHT22;6666;51.626;7.530;2022-12-18T11:11:55;-2.30;99.90
13203;DHT22;6666;51.626;7.530;2022-12-18T11:14:25;-2.30;99.90
13203;DHT22;6666;51.626;7.530;2022-12-18T11:16:55;-2.20;99.90
13203;DHT22;6666;51.626;7.530;2022-12-18T11:19:52;-2.10;99.90
13203;DHT22;6666;51.626;7.530;2022-12-18T11:22:23;-2.00;99.90
13203;DHT22;6666;51.626;7.530;2022-12-18T11:24:56;-2.00;99.90
13203;DHT22;6666;51.626;7.530;2022-12-18T11:27:48;-2.00;99.90
13203;DHT22;6666;51.626;7.530;2022-12-18T11:30:23;-2.00;99.90
13203;DHT22;6666;51.626;7.530;2022-12-18T11:32:54;-1.90;99.90
13203;DHT22;6666;51.626;7.530;2022-12-18T11:35:34;-1.90;99.90
13203;DHT22;6666;51.626;7.530;2022-12-18T11:38:10;-1.80;99.90
13203;DHT22;6666;51.626;7.530;2022-12-18T11:40:43;-1.80;99.90
13203;DHT22;6666;51.626;7.530;2022-12-18T11:43:16;-1.70;99.90
13203;DHT22;6666;51.626;7.530;2022-12-18T11:45:52;-1.70;99.90
13203;DHT22;6666;51.626;7.530;2022-12-18T11:48:23;-1.60;99.90
13203;DHT22;6666;51.626;7.530;2022-12-18T11:50:55;-1.60;99.90
13203;DHT22;6666;51.626;7.530;2022-12-18T11:53:26;-1.60;99.90
13203;DHT22;6666;51.626;7.530;2022-12-18T11:56:13;-1.60;99.90
13203;DHT22;6666;51.626;7.530;2022-12-18T11:58:50;-1.50;99.90
13203;DHT22;6666;51.626;7.530;2022-12-18T12:01:29;-1.50;99.90
13203;DHT22;6666;51.626;7.530;2022-12-18T12:04:25;-1.50;99.90
13203;DHT22;6666;51.626;7.530;2022-12-18T12:07:03;-1.50;99.90
13203;DHT22;6666;51.626;7.530;2022-12-18T12:09:39;-1.50;99.90
13203;DHT22;6666;51.626;7.530;2022-12-18T12:12:25;-1.40;99.90
13203;DHT22;6666;51.626;7.530;2022-12-18T12:14:59;-1.40;99.90
13203;DHT22;6666;51.626;7.530;2022-12-18T12:17:35;-1.40;99.90
13203;DHT22;6666;51.626;7.530;2022-12-18T12:20:11;-1.40;99.90
13203;DHT22;6666;51.626;7.530;2022-12-18T12:22:51;-1.40;99.90
13203;DHT22;6666;51.626;7.530;2022-12-18T12:25:31;-1.40;99.90
13203;DHT22;6666;51.626;7.530;2022-12-18T12:28:13;-1.40;99.90
13203;DHT22;6666;51.626;7.530;2022-12-18T12:30:54;-1.20;99.90
13203;DHT22;6666;51.626;7.530;2022-12-18T12:33:33;-1.10;99.90
13203;DHT22;6666;51.626;7.530;2022-12-18T12:36:10;-1.20;99.90
13203;DHT22;6666;51.626;7.530;2022-12-18T12:38:46;-1.20;99.90
13203;DHT22;6666;51.626;7.530;2022-12-18T12:41:21;-1.20;99.90
13203;DHT22;6666;51.626;7.530;2022-12-18T12:44:16;-1.10;99.90
13203;DHT22;6666;51.626;7.530;2022-12-18T12:46:46;-1.20;99.90
13203;DHT22;6666;51.626;7.530;2022-12-18T12:49:18;-1.20;99.90
13203;DHT22;6666;51.626;7.530;2022-12-18T12:51:55;-1.20;99.90
13203;DHT22;6666;51.626;7.530;2022-12-18T12:54:30;-1.20;99.90
13203;DHT22;6666;51.626;7.530;2022-12-18T12:57:02;-1.10;99.90
13203;DHT22;6666;51.626;7.530;2022-12-18T12:59:41;-1.10;99.90
13203;DHT22;6666;51.626;7.530;2022-12-18T13:02:20;-1.10;99.90
13203;DHT22;6666;51.626;7.530;2022-12-18T13:04:56;-1.00;99.90
13203;DHT22;6666;51.626;7.530;2022-12-18T13:07:29;-1.00;99.90
13203;DHT22;6666;51.626;7.530;2022-12-18T13:10:25;-0.90;99.90
13203;DHT22;6666;51.626;7.530;2022-12-18T13:12:57;-1.00;99.90
13203;DHT22;6666;51.626;7.530;2022-12-18T13:15:34;-0.90;99.90
13203;DHT22;6666;51.626;7.530;2022-12-18T13:18:14;-0.90;99.90
13203;DHT22;6666;51.626;7.530;2022-12-18T13:20:45;-0.90;99.90
13203;DHT22;6666;51.626;7.530;2022-12-18T13:23:33;-0.90;99.90
13203;DHT22;6666;51.626;7.530;2022-12-18T13:26:29;-0.90;99.90
13203;DHT22;6666;51.626;7.530;2022-12-18T13:29:00;-0.80;99.90
13203;DHT22;6666;51.626;7.530;2022-12-18T13:34:36;-0.80;99.90
13203;DHT22;6666;51.626;7.530;2022-12-18T13:37:42;-0.80;99.90
13203;DHT22;6666;51.626;7.530;2022-12-18T13:43:37;-0.80;99.90
13203;DHT22;6666;51.626;7.530;2022-12-18T13:46:23;-0.70;99.90
13203;DHT22;6666;51.626;7.530;2022-12-18T13:48:56;-0.80;99.90
13203;DHT22;6666;51.626;7.530;2022-12-18T13:51:25;-0.80;99.90
13203;DHT22;6666;51.626;7.530;2022-12-18T13:53:56;-0.80;99.90
13203;DHT22;6666;51.626;7.530;2022-12-18T13:56:27;-0.80;99.90
13203;DHT22;6666;51.626;7.530;2022-12-18T13:59:16;-0.80;99.90
13203;DHT22;6666;51.626;7.530;2022-12-18T14:01:52;-0.80;99.90
13203;DHT22;6666;51.626;7.530;2022-12-18T14:04:26;-0.80;99.90
13203;DHT22;6666;51.626;7.530;2022-12-18T14:07:02;-0.80;99.90
13203;DHT22;6666;51.626;7.530;2022-12-18T14:09:36;-0.80;99.90
13203;DHT22;6666;51.626;7.530;2022-12-18T14:12:11;-0.80;99.90
13203;DHT22;6666;51.626;7.530;2022-12-18T14:15:02;-0.70;99.90
13203;DHT22;6666;51.626;7.530;2022-12-18T14:17:31;-0.70;99.90
13203;DHT22;6666;51.626;7.530;2022-12-18T14:20:00;-0.70;99.90
13203;DHT22;6666;51.626;7.530;2022-12-18T14:22:29;-0.80;99.90
13203;DHT22;6666;51.626;7.530;2022-12-18T14:25:13;-0.80;99.90
13203;DHT22;6666;51.626;7.530;2022-12-18T14:27:43;-0.80;99.90
13203;DHT22;6666;51.626;7.530;2022-12-18T14:30:28;-0.80;99.90
13203;DHT22;6666;51.626;7.530;2022-12-18T14:33:01;-0.70;99.90
13203;DHT22;6666;51.626;7.530;2022-12-18T14:35:30;-0.80;99.90
13203;DHT22;6666;51.626;7.530;2022-12-18T14:38:22;-0.80;99.90
13203;DHT22;6666;51.626;7.530;2022-12-18T14:40:58;-0.90;99.90
13203;DHT22;6666;51.626;7.530;2022-12-18T14:43:29;-0.90;99.90
13203;DHT22;6666;51.626;7.530;2022-12-18T14:46:00;-0.90;99.90
13203;DHT22;6666;51.626;7.530;2022-12-18T14:48:36;-0.90;99.90
13203;DHT22;6666;51.626;7.530;2022-12-18T14:51:13;-0.90;99.90
13203;DHT22;6666;51.626;7.530;2022-12-18T14:53:44;-0.90;99.90
13203;DHT22;6666;51.626;7.530;2022-12-18T14:56:22;-0.80;99.90
13203;DHT22;6666;51.626;7.530;2022-12-18T14:58:54;-0.80;99.90
13203;DHT22;6666;51.626;7.530;2022-12-18T15:01:27;-0.80;99.90
13203;DHT22;6666;51.626;7.530;2022-12-18T15:03:57;-0.80;99.90
13203;DHT22;6666;51.626;7.530;2022-12-18T15:06:30;-0.80;99.90
13203;DHT22;6666;51.626;7.530;2022-12-18T15:08:59;-0.90;99.90
13203;DHT22;6666;51.626;7.530;2022-12-18T15:11:34;-0.90;99.90
13203;DHT22;6666;51.626;7.530;2022-12-18T15:14:33;-0.90;99.90
13203;DHT22;6666;51.626;7.530;2022-12-18T15:17:06;-0.80;99.90
13203;DHT22;6666;51.626;7.530;2022-12-18T15:19:43;-0.80;99.90
13203;DHT22;6666;51.626;7.530;2022-12-18T15:22:20;-0.80;99.90
13203;DHT22;6666;51.626;7.530;2022-12-18T15:24:50;-0.80;99.90
13203;DHT22;6666;51.626;7.530;2022-12-18T15:27:24;-0.80;99.90
13203;DHT22;6666;51.626;7.530;2022-12-18T15:30:15;-0.80;99.90
13203;DHT22;6666;51.626;7.530;2022-12-18T15:32:46;-0.70;99.90
13203;DHT22;6666;51.626;7.530;2022-12-18T15:35:18;-0.70;99.90
13203;DHT22;6666;51.626;7.530;2022-12-18T15:37:46;-0.70;99.90
13203;DHT22;6666;51.626;7.530;2022-12-18T15:40:16;-0.70;99.90
13203;DHT22;6666;51.626;7.530;2022-12-18T15:42:46;-0.70;99.90
13203;DHT22;6666;51.626;7.530;2022-12-18T15:45:32;-0.60;99.90
13203;DHT22;6666;51.626;7.530;2022-12-18T15:48:15;-0.60;99.90
13203;DHT22;6666;51.626;7.530;2022-12-18T15:50:45;-0.50;99.90
13203;DHT22;6666;51.626;7.530;2022-12-18T15:53:14;-0.50;99.90
13203;DHT22;6666;51.626;7.530;2022-12-18T15:55:42;-0.50;99.90
13203;DHT22;6666;51.626;7.530;2022-12-18T15:58:27;-0.50;99.90
13203;DHT22;6666;51.626;7.530;2022-12-18T16:00:56;-0.50;99.90
13203;DHT22;6666;51.626;7.530;2022-12-18T16:03:27;-0.50;99.90
13203;DHT22;6666;51.626;7.530;2022-12-18T16:05:55;-0.50;99.90
13203;DHT22;6666;51.626;7.530;2022-12-18T16:08:26;-0.50;99.90
13203;DHT22;6666;51.626;7.530;2022-12-18T16:10:54;-0.40;99.90
13203;DHT22;6666;51.626;7.530;2022-12-18T16:13:23;-0.40;99.90
13203;DHT22;6666;51.626;7.530;2022-12-18T16:15:51;-0.40;99.90
13203;DHT22;6666;51.626;7.530;2022-12-18T16:18:19;-0.40;99.90
13203;DHT22;6666;51.626;7.530;2022-12-18T16:20:49;-0.50;99.90
13203;DHT22;6666;51.626;7.530;2022-12-18T16:23:17;-0.50;99.90
13203;DHT22;6666;51.626;7.530;2022-12-18T16:25:46;-0.60;99.90